createdAt,value
2018-04-20T00:00:05.912Z,17.22
2018-04-20T00:01:46.929Z,17.20
2018-04-20T00:03:29.252Z,17.14
2018-04-20T00:04:49.989Z,17.12
2018-04-20T00:05:50.603Z,17.11
2018-04-20T00:06:50.642Z,17.09
2018-04-20T00:07:50.554Z,17.12
2018-04-20T00:09:11.295Z,17.14
2018-04-20T00:10:11.101Z,17.11
2018-04-20T00:11:11.757Z,17.08
2018-04-20T00:12:11.944Z,17.08
2018-04-20T00:13:11.497Z,17.08
2018-04-20T00:14:11.360Z,17.05
2018-04-20T00:15:11.346Z,17.04
2018-04-20T00:16:10.968Z,17.02
2018-04-20T00:17:11.746Z,16.99
2018-04-20T00:18:55.732Z,16.97
2018-04-20T00:20:35.128Z,16.91
2018-04-20T00:21:26.130Z,16.91
2018-04-20T00:22:26.050Z,16.90
2018-04-20T00:23:25.801Z,16.91
2018-04-20T00:24:25.879Z,16.93
2018-04-20T00:25:25.945Z,16.96
2018-04-20T00:26:25.859Z,16.96
2018-04-20T00:27:25.821Z,16.93
2018-04-20T00:28:26.160Z,16.97
2018-04-20T00:29:25.895Z,17.01
2018-04-20T00:30:25.849Z,17.05
2018-04-20T00:31:25.741Z,17.08
2018-04-20T00:32:47.143Z,17.05
2018-04-20T00:33:46.810Z,17.01
2018-04-20T00:34:47.648Z,17.01
2018-04-20T00:36:07.994Z,16.94
2018-04-20T00:37:30.190Z,16.89
2018-04-20T00:38:29.839Z,16.90
2018-04-20T00:39:30.429Z,16.90
2018-04-20T00:40:30.550Z,16.93
2018-04-20T00:41:29.227Z,16.91
2018-04-20T00:42:29.989Z,16.93
2018-04-20T00:44:10.939Z,16.99
2018-04-20T00:45:11.828Z,16.99
2018-04-20T00:46:32.799Z,17.01
2018-04-20T00:47:32.535Z,16.97
2018-04-20T00:48:53.087Z,16.99
2018-04-20T00:49:53.795Z,17.02
2018-04-20T00:50:53.490Z,17.02
2018-04-20T00:52:13.805Z,17.05
2018-04-20T00:53:34.245Z,17.09
2018-04-20T00:54:35.192Z,17.09
2018-04-20T00:55:35.544Z,17.09
2018-04-20T00:56:34.680Z,17.12
2018-04-20T00:57:34.811Z,17.12
2018-04-20T00:58:34.613Z,17.11
2018-04-20T00:59:55.086Z,17.06
2018-04-20T01:00:54.797Z,17.04
2018-04-20T01:02:16.292Z,16.99
2018-04-20T01:03:16.066Z,16.97
2018-04-20T01:04:36.680Z,16.91
2018-04-20T01:05:37.905Z,16.91
2018-04-20T01:06:37.467Z,16.93
2018-04-20T01:07:37.090Z,16.93
2018-04-20T01:08:38.045Z,16.91
2018-04-20T01:09:36.863Z,16.93
2018-04-20T01:10:37.603Z,16.91
2018-04-20T01:11:37.738Z,16.90
2018-04-20T01:12:38.260Z,16.87
2018-04-20T01:13:36.993Z,16.87
2018-04-20T01:14:37.099Z,16.87
2018-04-20T01:15:36.824Z,16.84
2018-04-20T01:16:38.003Z,16.86
2018-04-20T01:17:59.055Z,16.84
2018-04-20T01:19:20.475Z,16.83
2018-04-20T01:20:21.517Z,16.79
2018-04-20T01:22:02.160Z,16.78
2018-04-20T01:23:22.557Z,16.78
2018-04-20T01:24:23.263Z,16.76
2018-04-20T01:25:23.093Z,16.76
2018-04-20T01:26:23.121Z,16.74
2018-04-20T01:27:22.601Z,16.75
2018-04-20T01:28:23.241Z,16.71
2018-04-20T01:29:22.772Z,16.69
2018-04-20T01:30:23.397Z,16.71
2018-04-20T01:31:23.430Z,16.68
2018-04-20T01:32:23.040Z,16.68
2018-04-20T01:33:22.736Z,16.64
2018-04-20T01:34:23.419Z,16.64
2018-04-20T01:35:23.520Z,16.61
2018-04-20T01:36:23.059Z,16.60
2018-04-20T01:38:03.904Z,16.57
2018-04-20T01:39:04.485Z,16.54
2018-04-20T01:40:04.523Z,16.50
2018-04-20T01:41:04.463Z,16.49
2018-04-20T01:42:04.967Z,16.42
2018-04-20T01:43:04.609Z,16.38
2018-04-20T01:44:45.455Z,16.35
2018-04-20T01:46:06.247Z,16.29
2018-04-20T01:47:28.233Z,16.26
2018-04-20T01:48:29.106Z,16.23
2018-04-20T01:49:28.722Z,16.20
2018-04-20T01:50:28.363Z,16.17
2018-04-20T01:51:29.004Z,16.13
2018-04-20T01:52:28.865Z,16.12
2018-04-20T01:53:28.442Z,16.09
2018-04-20T01:54:29.107Z,16.08
2018-04-20T01:55:28.721Z,16.05
2018-04-20T01:56:28.407Z,16.01
2018-04-20T01:57:29.366Z,15.98
2018-04-20T01:58:29.216Z,15.94
2018-04-20T01:59:28.761Z,15.92
2018-04-20T02:00:28.430Z,15.92
2018-04-20T02:01:28.204Z,15.90
2018-04-20T02:02:29.312Z,15.86
2018-04-20T02:03:28.823Z,15.83
2018-04-20T02:04:28.448Z,15.80
2018-04-20T02:05:28.958Z,15.77
2018-04-20T02:06:29.088Z,15.75
2018-04-20T02:07:28.755Z,15.73
2018-04-20T02:08:28.518Z,15.68
2018-04-20T02:09:29.218Z,15.65
2018-04-20T02:10:29.069Z,15.61
2018-04-20T02:11:28.694Z,15.58
2018-04-20T02:12:29.653Z,15.57
2018-04-20T02:13:29.141Z,15.52
2018-04-20T02:14:28.656Z,15.51
2018-04-20T02:15:28.451Z,15.47
2018-04-20T02:16:29.399Z,15.44
2018-04-20T02:17:29.265Z,15.43
2018-04-20T02:18:29.184Z,15.40
2018-04-20T02:19:29.212Z,15.39
2018-04-20T02:20:29.226Z,15.36
2018-04-20T02:21:29.007Z,15.33
2018-04-20T02:22:49.782Z,15.31
2018-04-20T02:23:49.431Z,15.28
2018-04-20T02:24:50.180Z,15.27
2018-04-20T02:25:49.955Z,15.25
2018-04-20T02:26:49.484Z,15.21
2018-04-20T02:27:51.028Z,15.18
2018-04-20T02:28:50.017Z,15.21
2018-04-20T02:30:10.784Z,15.21
2018-04-20T02:31:32.398Z,15.21
2018-04-20T02:32:32.990Z,15.18
2018-04-20T02:33:53.356Z,15.14
2018-04-20T02:34:53.978Z,15.11
2018-04-20T02:35:54.151Z,15.17
2018-04-20T02:36:54.181Z,15.17
2018-04-20T02:38:14.847Z,15.15
2018-04-20T02:39:14.559Z,15.14
2018-04-20T02:40:15.060Z,15.14
2018-04-20T02:41:14.779Z,15.10
2018-04-20T02:42:15.867Z,15.14
2018-04-20T02:43:15.544Z,15.15
2018-04-20T02:44:15.171Z,15.14
2018-04-20T02:45:15.144Z,15.14
2018-04-20T02:46:15.120Z,15.07
2018-04-20T02:47:14.671Z,15.09
2018-04-20T02:48:15.327Z,15.06
2018-04-20T02:49:35.724Z,15.06
2018-04-20T02:50:35.833Z,15.03
2018-04-20T02:51:35.864Z,15.03
2018-04-20T02:52:35.797Z,15.03
2018-04-20T02:53:56.050Z,15.03
2018-04-20T02:54:55.751Z,15.03
2018-04-20T02:55:58.970Z,15.03
2018-04-20T02:56:55.638Z,15.04
2018-04-20T02:58:16.906Z,15.07
2018-04-20T02:59:17.983Z,15.06
2018-04-20T03:00:17.815Z,15.06
2018-04-20T03:01:17.359Z,15.06
2018-04-20T03:02:37.750Z,15.07
2018-04-20T03:03:38.356Z,15.06
2018-04-20T03:04:38.318Z,15.02
2018-04-20T03:05:38.399Z,15.00
2018-04-20T03:06:38.249Z,15.06
2018-04-20T03:07:37.895Z,15.07
2018-04-20T03:08:37.915Z,15.06
2018-04-20T03:10:00.178Z,15.04
2018-04-20T03:11:00.997Z,15.00
2018-04-20T03:12:00.707Z,15.02
2018-04-20T03:13:00.304Z,15.00
2018-04-20T03:14:01.082Z,15.03
2018-04-20T03:15:01.149Z,15.00
2018-04-20T03:16:00.954Z,15.02
2018-04-20T03:17:00.423Z,15.00
2018-04-20T03:18:01.425Z,14.97
2018-04-20T03:19:01.287Z,14.96
2018-04-20T03:20:00.838Z,14.94
2018-04-20T03:21:00.493Z,14.89
2018-04-20T03:22:00.999Z,14.88
2018-04-20T03:23:00.596Z,14.88
2018-04-20T03:24:00.114Z,14.85
2018-04-20T03:25:01.111Z,14.85
2018-04-20T03:26:00.834Z,14.85
2018-04-20T03:27:00.395Z,14.85
2018-04-20T03:28:01.154Z,14.84
2018-04-20T03:29:00.621Z,14.84
2018-04-20T03:30:01.313Z,14.82
2018-04-20T03:31:00.910Z,14.82
2018-04-20T03:32:42.043Z,14.79
2018-04-20T03:33:42.062Z,14.79
2018-04-20T03:35:02.275Z,14.77
2018-04-20T03:36:03.253Z,14.77
2018-04-20T03:37:02.734Z,14.73
2018-04-20T03:38:02.637Z,14.69
2018-04-20T03:39:02.681Z,14.66
2018-04-20T03:40:02.710Z,14.68
2018-04-20T03:41:02.302Z,14.66
2018-04-20T03:42:02.856Z,14.63
2018-04-20T03:43:02.526Z,14.60
2018-04-20T03:44:24.067Z,14.62
2018-04-20T03:45:25.005Z,14.55
2018-04-20T03:46:24.648Z,14.51
2018-04-20T03:47:24.215Z,14.51
2018-04-20T03:48:24.100Z,14.51
2018-04-20T03:49:24.071Z,14.48
2018-04-20T03:50:44.091Z,14.43
2018-04-20T03:51:44.757Z,14.41
2018-04-20T03:52:44.748Z,14.40
2018-04-20T03:53:44.377Z,14.37
2018-04-20T03:54:45.588Z,14.36
2018-04-20T03:55:44.135Z,14.36
2018-04-20T03:56:45.060Z,14.35
2018-04-20T03:57:44.647Z,14.35
2018-04-20T03:58:44.781Z,14.36
2018-04-20T03:59:44.922Z,14.37
2018-04-20T04:00:45.031Z,14.37
2018-04-20T04:01:44.886Z,14.36
2018-04-20T04:02:44.427Z,14.36
2018-04-20T04:04:05.123Z,14.45
2018-04-20T04:05:05.294Z,14.45
2018-04-20T04:06:04.975Z,14.44
2018-04-20T04:07:05.695Z,14.43
2018-04-20T04:08:06.657Z,14.43
2018-04-20T04:09:05.866Z,14.41
2018-04-20T04:10:05.568Z,14.40
2018-04-20T04:11:05.831Z,14.35
2018-04-20T04:12:26.855Z,14.35
2018-04-20T04:13:47.861Z,14.40
2018-04-20T04:14:49.091Z,14.45
2018-04-20T04:15:47.891Z,14.51
2018-04-20T04:16:49.025Z,14.58
2018-04-20T04:17:48.679Z,14.58
2018-04-20T04:18:48.439Z,14.59
2018-04-20T04:19:48.521Z,14.58
2018-04-20T04:20:48.643Z,14.62
2018-04-20T04:21:48.479Z,14.60
2018-04-20T04:22:48.533Z,14.59
2018-04-20T04:23:48.258Z,14.58
2018-04-20T04:24:48.082Z,14.54
2018-04-20T04:25:48.672Z,14.54
2018-04-20T04:26:48.826Z,14.55
2018-04-20T04:27:48.719Z,14.55
2018-04-20T04:28:48.772Z,14.60
2018-04-20T04:29:48.842Z,14.60
2018-04-20T04:30:48.372Z,14.62
2018-04-20T04:31:48.078Z,14.59
2018-04-20T04:32:48.181Z,14.58
2018-04-20T04:33:48.834Z,14.58
2018-04-20T04:34:48.535Z,14.54
2018-04-20T04:35:49.652Z,14.55
2018-04-20T04:36:48.647Z,14.55
2018-04-20T04:38:09.417Z,14.59
2018-04-20T04:39:10.927Z,14.58
2018-04-20T04:40:10.256Z,14.60
2018-04-20T04:41:30.885Z,14.65
2018-04-20T04:42:32.025Z,14.68
2018-04-20T04:43:32.124Z,14.68
2018-04-20T04:44:31.670Z,14.68
2018-04-20T04:45:31.963Z,14.69
2018-04-20T04:46:32.167Z,14.72
2018-04-20T04:47:51.937Z,14.79
2018-04-20T04:48:53.134Z,14.85
2018-04-20T04:49:52.123Z,14.85
2018-04-20T04:50:53.398Z,14.86
2018-04-20T04:52:14.796Z,14.96
2018-04-20T04:53:16.238Z,15.00
2018-04-20T04:54:15.331Z,15.00
2018-04-20T04:55:15.454Z,15.04
2018-04-20T04:56:15.551Z,15.09
2018-04-20T04:57:15.507Z,15.17
2018-04-20T04:58:16.000Z,15.22
2018-04-20T04:59:15.779Z,15.25
2018-04-20T05:00:16.218Z,15.33
2018-04-20T05:01:15.140Z,15.40
2018-04-20T05:02:14.951Z,15.44
2018-04-20T05:03:36.803Z,15.51
2018-04-20T05:04:37.110Z,15.54
2018-04-20T05:05:37.288Z,15.55
2018-04-20T05:06:37.309Z,15.55
2018-04-20T05:07:38.346Z,15.54
2018-04-20T05:08:37.460Z,15.57
2018-04-20T05:09:37.399Z,15.58
2018-04-20T05:10:37.543Z,15.59
2018-04-20T05:11:37.803Z,15.59
2018-04-20T05:12:38.003Z,15.62
2018-04-20T05:13:37.094Z,15.65
2018-04-20T05:14:36.869Z,15.70
2018-04-20T05:15:37.538Z,15.76
2018-04-20T05:16:37.747Z,15.88
2018-04-20T05:17:37.063Z,15.97
2018-04-20T05:18:37.266Z,16.05
2018-04-20T05:19:58.114Z,16.21
2018-04-20T05:20:59.436Z,16.32
2018-04-20T05:21:58.270Z,16.46
2018-04-20T05:22:59.334Z,16.57
2018-04-20T05:23:59.460Z,16.68
2018-04-20T05:24:58.241Z,16.79
2018-04-20T05:25:58.320Z,16.89
2018-04-20T05:26:59.450Z,16.91
2018-04-20T05:28:19.608Z,17.11
2018-04-20T05:29:19.261Z,17.33
2018-04-20T05:30:20.584Z,17.52
2018-04-20T05:31:19.813Z,17.79
2018-04-20T05:32:19.456Z,17.94
2018-04-20T05:33:20.101Z,18.08
2018-04-20T05:34:20.906Z,18.20
2018-04-20T05:35:19.743Z,18.29
2018-04-20T05:36:19.942Z,18.43
2018-04-20T05:37:20.554Z,18.59
2018-04-20T05:38:19.375Z,18.74
2018-04-20T05:39:19.527Z,18.89
2018-04-20T05:40:40.188Z,19.08
2018-04-20T05:41:39.949Z,19.16
2018-04-20T05:42:40.995Z,19.27
2018-04-20T05:43:41.180Z,19.40
2018-04-20T05:44:39.864Z,19.54
2018-04-20T05:46:01.626Z,19.71
2018-04-20T05:47:02.353Z,19.84
2018-04-20T05:48:02.199Z,19.92
2018-04-20T05:49:02.486Z,20.04
2018-04-20T05:50:02.681Z,20.14
2018-04-20T05:51:02.902Z,20.28
2018-04-20T05:52:23.120Z,20.36
2018-04-20T05:53:25.051Z,20.32
2018-04-20T05:54:24.584Z,20.31
2018-04-20T05:55:23.519Z,20.39
2018-04-20T05:56:23.653Z,20.59
2018-04-20T05:57:24.235Z,20.74
2018-04-20T05:58:25.135Z,20.90
2018-04-20T05:59:24.149Z,21.06
2018-04-20T06:00:24.322Z,21.25
2018-04-20T06:01:23.709Z,21.45
2018-04-20T06:02:24.926Z,21.60
2018-04-20T06:03:23.616Z,21.62
2018-04-20T06:04:23.533Z,21.61
2018-04-20T06:05:23.746Z,21.42
2018-04-20T06:06:24.097Z,21.07
2018-04-20T06:07:24.275Z,20.82
2018-04-20T06:08:23.510Z,20.70
2018-04-20T06:09:23.535Z,20.65
2018-04-20T06:10:23.914Z,20.65
2018-04-20T06:11:24.975Z,20.65
2018-04-20T06:12:24.400Z,20.55
2018-04-20T06:13:23.204Z,20.50
2018-04-20T06:14:23.779Z,20.50
2018-04-20T06:15:23.764Z,20.44
2018-04-20T06:16:23.996Z,20.32
2018-04-20T06:17:43.983Z,20.28
2018-04-20T06:19:05.450Z,20.18
2018-04-20T06:20:05.160Z,20.10
2018-04-20T06:21:06.306Z,20.13
2018-04-20T06:22:26.377Z,20.21
2018-04-20T06:23:27.461Z,20.32
2018-04-20T06:24:26.559Z,20.51
2018-04-20T06:25:26.631Z,20.72
2018-04-20T06:26:26.718Z,21.03
2018-04-20T06:27:26.558Z,21.32
2018-04-20T06:28:26.740Z,21.48
2018-04-20T06:29:26.962Z,21.80
2018-04-20T06:30:46.956Z,22.13
2018-04-20T06:32:07.235Z,22.54
2018-04-20T06:33:08.597Z,22.83
2018-04-20T06:34:07.859Z,23.06
2018-04-20T06:35:07.949Z,23.37
2018-04-20T06:36:08.093Z,23.61
2018-04-20T06:37:49.752Z,24.26
2018-04-20T06:38:50.789Z,24.63
2018-04-20T06:39:49.590Z,24.85
2018-04-20T06:40:49.961Z,24.98
2018-04-20T06:41:49.802Z,25.10
2018-04-20T06:42:49.799Z,25.22
2018-04-20T06:43:49.532Z,25.32
2018-04-20T06:44:50.251Z,25.43
2018-04-20T06:45:50.270Z,25.69
2018-04-20T06:46:50.531Z,25.91
2018-04-20T06:47:50.726Z,26.02
2018-04-20T06:48:49.853Z,26.15
2018-04-20T06:49:50.146Z,26.05
2018-04-20T06:50:50.321Z,26.00
2018-04-20T06:51:50.500Z,26.10
2018-04-20T06:52:50.678Z,26.05
2018-04-20T06:53:49.516Z,26.05
2018-04-20T06:55:11.522Z,26.31
2018-04-20T06:56:32.093Z,26.33
2018-04-20T06:57:33.303Z,26.47
2018-04-20T06:58:32.523Z,26.56
2018-04-20T06:59:32.382Z,26.83
2018-04-20T07:00:53.687Z,27.05
2018-04-20T07:01:53.732Z,27.10
2018-04-20T07:02:53.952Z,27.21
2018-04-20T07:03:53.767Z,27.35
2018-04-20T07:05:14.106Z,27.27
2018-04-20T07:06:15.151Z,26.84
2018-04-20T07:07:14.495Z,26.92
2018-04-20T07:08:35.490Z,27.27
2018-04-20T07:09:35.272Z,27.18
2018-04-20T07:10:35.027Z,27.21
2018-04-20T07:11:56.880Z,27.47
2018-04-20T07:12:57.020Z,27.42
2018-04-20T07:13:56.870Z,27.68
2018-04-20T07:14:56.660Z,27.78
2018-04-20T07:15:57.354Z,27.70
2018-04-20T07:16:57.252Z,27.87
2018-04-20T07:17:56.994Z,27.85
2018-04-20T07:18:56.715Z,27.78
2018-04-20T07:19:56.964Z,27.77
2018-04-20T07:20:57.052Z,27.71
2018-04-20T07:21:56.848Z,27.60
2018-04-20T07:22:56.553Z,27.80
2018-04-20T07:23:57.370Z,27.83
2018-04-20T07:24:57.610Z,27.92
2018-04-20T07:25:56.771Z,28.12
2018-04-20T07:26:57.006Z,28.30
2018-04-20T07:28:17.373Z,28.59
2018-04-20T07:29:18.262Z,28.79
2018-04-20T07:30:18.044Z,28.84
2018-04-20T07:32:20.122Z,29.01
2018-04-20T07:33:20.337Z,28.94
2018-04-20T07:34:40.990Z,28.79
2018-04-20T07:35:41.814Z,28.91
2018-04-20T07:36:42.030Z,28.98
2018-04-20T07:38:02.352Z,29.17
2018-04-20T07:39:24.113Z,29.24
2018-04-20T07:40:23.719Z,29.34
2018-04-20T07:41:45.413Z,29.38
2018-04-20T07:42:45.290Z,29.32
2018-04-20T07:44:06.108Z,29.27
2018-04-20T07:45:06.045Z,29.41
2018-04-20T07:46:05.939Z,29.68
2018-04-20T07:47:06.300Z,29.78
2018-04-20T07:48:06.306Z,29.90
2018-04-20T07:49:06.158Z,29.88
2018-04-20T07:50:05.979Z,29.98
2018-04-20T07:51:05.738Z,29.94
2018-04-20T07:52:07.419Z,29.81
2018-04-20T07:53:06.533Z,29.78
2018-04-20T07:54:27.127Z,29.69
2018-04-20T07:55:27.895Z,29.86
2018-04-20T07:56:27.646Z,29.97
2018-04-20T07:57:27.904Z,30.34
2018-04-20T07:58:27.662Z,30.55
2018-04-20T07:59:27.812Z,30.47
2018-04-20T08:00:27.704Z,30.59
2018-04-20T08:01:27.869Z,30.69
2018-04-20T08:02:27.949Z,30.73
2018-04-20T08:03:28.558Z,30.88
2018-04-20T08:04:27.656Z,31.03
2018-04-20T08:05:27.711Z,31.31
2018-04-20T08:06:27.373Z,31.51
2018-04-20T08:07:27.160Z,31.54
2018-04-20T08:08:28.011Z,31.71
2018-04-20T08:09:27.941Z,31.84
2018-04-20T08:10:27.836Z,31.39
2018-04-20T08:11:27.539Z,31.36
2018-04-20T08:12:27.369Z,31.42
2018-04-20T08:13:48.314Z,31.20
2018-04-20T08:14:48.640Z,31.25
2018-04-20T08:15:48.726Z,31.47
2018-04-20T08:17:31.092Z,31.74
2018-04-20T08:18:32.413Z,31.73
2018-04-20T08:19:52.049Z,31.66
2018-04-20T08:20:53.270Z,31.78
2018-04-20T08:21:52.003Z,31.90
2018-04-20T08:22:52.740Z,32.08
2018-04-20T08:23:52.605Z,32.14
2018-04-20T08:24:52.568Z,32.37
2018-04-20T08:25:52.332Z,32.60
2018-04-20T08:26:52.288Z,32.78
2018-04-20T08:27:52.119Z,32.86
2018-04-20T08:28:52.375Z,32.59
2018-04-20T08:29:52.684Z,32.46
2018-04-20T08:30:52.781Z,32.56
2018-04-20T08:31:53.140Z,32.82
2018-04-20T08:32:53.268Z,33.12
2018-04-20T08:34:13.928Z,33.07
2018-04-20T08:35:35.333Z,33.46
2018-04-20T08:36:35.158Z,33.46
2018-04-20T08:37:35.787Z,33.46
2018-04-20T08:38:36.680Z,33.62
2018-04-20T08:39:35.625Z,33.64
2018-04-20T08:40:56.214Z,33.83
2018-04-20T08:41:56.089Z,33.76
2018-04-20T08:42:56.908Z,33.80
2018-04-20T08:43:57.118Z,33.94
2018-04-20T08:44:56.073Z,34.18
2018-04-20T08:45:57.214Z,34.08
2018-04-20T08:46:56.065Z,34.02
2018-04-20T08:47:56.275Z,34.11
2018-04-20T08:48:56.518Z,34.18
2018-04-20T08:49:56.659Z,34.11
2018-04-20T08:50:56.887Z,33.86
2018-04-20T08:51:57.209Z,33.80
2018-04-20T08:52:56.105Z,33.81
2018-04-20T08:53:55.987Z,33.90
2018-04-20T08:54:55.883Z,34.24
2018-04-20T08:55:56.733Z,34.47
2018-04-20T08:56:56.595Z,34.50
2018-04-20T08:57:56.803Z,34.36
2018-04-20T08:58:56.661Z,34.33
2018-04-20T08:59:56.536Z,34.36
2018-04-20T09:00:56.821Z,34.51
2018-04-20T09:01:56.837Z,34.58
2018-04-20T09:02:56.853Z,34.74
2018-04-20T09:03:56.754Z,34.78
2018-04-20T09:04:56.744Z,35.04
2018-04-20T09:05:56.601Z,35.34
2018-04-20T09:06:57.072Z,35.37
2018-04-20T09:07:56.311Z,35.56
2018-04-20T09:08:56.597Z,35.61
2018-04-20T09:09:56.540Z,35.66
2018-04-20T09:10:56.535Z,35.82
2018-04-20T09:11:57.134Z,36.08
2018-04-20T09:12:56.314Z,36.08
2018-04-20T09:13:56.186Z,36.16
2018-04-20T09:15:58.996Z,35.89
2018-04-20T09:17:00.361Z,35.98
2018-04-20T09:17:59.106Z,35.90
2018-04-20T09:19:41.681Z,36.09
2018-04-20T09:21:02.723Z,36.18
2018-04-20T09:22:02.917Z,36.04
2018-04-20T09:23:03.157Z,36.20
2018-04-20T09:24:03.417Z,36.40
2018-04-20T09:25:02.661Z,36.70
2018-04-20T09:26:02.861Z,36.91
2018-04-20T09:27:03.191Z,36.86
2018-04-20T09:28:03.356Z,36.83
2018-04-20T09:29:02.699Z,36.91
2018-04-20T09:30:02.487Z,36.98
2018-04-20T09:31:02.431Z,37.02
2018-04-20T09:32:23.584Z,37.23
2018-04-20T09:33:24.440Z,37.53
2018-04-20T09:34:23.744Z,37.48
2018-04-20T09:35:44.275Z,37.51
2018-04-20T09:36:45.108Z,37.64
2018-04-20T09:37:45.543Z,37.71
2018-04-20T09:38:44.824Z,37.63
2018-04-20T09:39:44.977Z,37.70
2018-04-20T09:40:45.161Z,37.94
2018-04-20T09:41:44.811Z,38.21
2018-04-20T09:42:44.821Z,38.14
2018-04-20T09:43:44.655Z,38.14
2018-04-20T09:44:44.333Z,38.14
2018-04-20T09:45:44.600Z,37.89
2018-04-20T09:46:44.890Z,38.02
2018-04-20T09:47:45.707Z,38.23
2018-04-20T09:48:45.038Z,38.27
2018-04-20T09:49:45.266Z,38.20
2018-04-20T09:50:44.277Z,37.83
2018-04-20T09:51:45.486Z,37.80
2018-04-20T09:52:44.659Z,37.87
2018-04-20T09:53:44.904Z,37.77
2018-04-20T09:54:44.884Z,37.68
2018-04-20T09:55:45.241Z,37.59
2018-04-20T09:56:45.103Z,37.89
2018-04-20T09:57:45.011Z,38.15
2018-04-20T09:58:45.235Z,38.34
2018-04-20T09:59:45.082Z,38.33
2018-04-20T10:00:45.393Z,38.42
2018-04-20T10:01:44.162Z,38.46
2018-04-20T10:02:45.424Z,38.57
2018-04-20T10:03:44.804Z,38.39
2018-04-20T10:04:44.562Z,38.31
2018-04-20T10:05:44.864Z,38.09
2018-04-20T10:07:26.430Z,38.15
2018-04-20T10:08:27.652Z,38.39
2018-04-20T10:09:26.524Z,38.48
2018-04-20T10:10:27.604Z,38.43
2018-04-20T10:11:47.800Z,38.38
2018-04-20T10:12:47.736Z,38.39
2018-04-20T10:13:48.473Z,38.36
2018-04-20T10:14:48.341Z,38.33
2018-04-20T10:15:48.280Z,38.31
2018-04-20T10:16:48.511Z,38.36
2018-04-20T10:17:48.341Z,38.61
2018-04-20T10:18:48.486Z,38.74
2018-04-20T10:19:48.254Z,38.73
2018-04-20T10:20:48.087Z,38.79
2018-04-20T10:21:47.921Z,38.46
2018-04-20T10:22:47.871Z,38.36
2018-04-20T10:23:47.613Z,38.34
2018-04-20T10:24:47.457Z,38.08
2018-04-20T10:26:10.194Z,37.40
2018-04-20T10:27:52.679Z,37.39
2018-04-20T10:28:53.604Z,37.92
2018-04-20T10:29:53.379Z,38.30
2018-04-20T10:31:13.995Z,38.34
2018-04-20T10:32:15.170Z,38.27
2018-04-20T10:33:14.066Z,38.46
2018-04-20T10:34:14.374Z,38.83
2018-04-20T10:35:14.721Z,38.99
2018-04-20T10:36:14.550Z,38.92
2018-04-20T10:37:14.811Z,39.02
2018-04-20T10:38:14.527Z,39.14
2018-04-20T10:39:14.828Z,38.64
2018-04-20T10:40:15.276Z,38.30
2018-04-20T10:41:14.088Z,38.26
2018-04-20T10:42:14.835Z,38.30
2018-04-20T10:43:56.521Z,38.76
2018-04-20T10:44:57.331Z,38.80
2018-04-20T10:45:57.399Z,38.69
2018-04-20T10:47:17.970Z,38.52
2018-04-20T10:48:18.708Z,38.83
2018-04-20T10:49:18.387Z,38.82
2018-04-20T10:50:18.273Z,38.67
2018-04-20T10:51:18.464Z,38.87
2018-04-20T10:52:18.540Z,38.91
2018-04-20T10:53:19.862Z,38.61
2018-04-20T10:54:18.989Z,38.69
2018-04-20T10:55:19.158Z,38.79
2018-04-20T10:56:18.899Z,38.61
2018-04-20T10:57:19.336Z,38.52
2018-04-20T10:58:18.536Z,38.79
2018-04-20T10:59:18.787Z,38.92
2018-04-20T11:01:01.275Z,39.09
2018-04-20T11:02:02.053Z,39.14
2018-04-20T11:03:02.267Z,39.22
2018-04-20T11:04:02.144Z,39.41
2018-04-20T11:05:02.433Z,39.52
2018-04-20T11:06:01.357Z,39.46
2018-04-20T11:07:01.649Z,38.99
2018-04-20T11:08:22.155Z,38.87
2018-04-20T11:09:26.278Z,38.76
2018-04-20T11:10:23.088Z,38.61
2018-04-20T11:11:22.033Z,38.76
2018-04-20T11:12:43.019Z,39.21
2018-04-20T11:13:43.341Z,39.33
2018-04-20T11:15:03.737Z,39.59
2018-04-20T11:16:04.892Z,39.68
2018-04-20T11:17:05.039Z,39.51
2018-04-20T11:18:03.853Z,39.30
2018-04-20T11:19:03.782Z,39.51
2018-04-20T11:20:05.038Z,39.67
2018-04-20T11:21:04.121Z,39.72
2018-04-20T11:22:03.937Z,39.71
2018-04-20T11:23:04.803Z,39.86
2018-04-20T11:24:04.869Z,39.93
2018-04-20T11:25:04.587Z,40.02
2018-04-20T11:26:04.421Z,39.71
2018-04-20T11:27:04.057Z,39.31
2018-04-20T11:28:04.043Z,39.18
2018-04-20T11:29:03.952Z,39.36
2018-04-20T11:30:04.122Z,39.56
2018-04-20T11:31:04.442Z,39.46
2018-04-20T11:32:25.673Z,39.30
2018-04-20T11:33:46.988Z,39.19
2018-04-20T11:34:46.819Z,39.17
2018-04-20T11:35:46.890Z,39.37
2018-04-20T11:36:47.683Z,39.55
2018-04-20T11:38:08.420Z,39.86
2018-04-20T11:39:09.317Z,39.89
2018-04-20T11:40:09.261Z,39.75
2018-04-20T11:41:30.298Z,39.56
2018-04-20T11:42:30.078Z,39.37
2018-04-20T11:43:31.021Z,39.14
2018-04-20T11:44:31.209Z,38.87
2018-04-20T11:45:30.246Z,38.77
2018-04-20T11:46:30.454Z,39.02
2018-04-20T11:47:30.346Z,38.87
2018-04-20T11:48:30.160Z,38.84
2018-04-20T11:49:29.999Z,38.95
2018-04-20T11:50:30.853Z,38.91
2018-04-20T11:51:30.970Z,39.02
2018-04-20T11:52:31.129Z,38.92
2018-04-20T11:53:29.934Z,39.15
2018-04-20T11:54:31.110Z,39.21
2018-04-20T11:55:31.305Z,39.06
2018-04-20T11:56:30.046Z,38.69
2018-04-20T11:57:29.960Z,38.34
2018-04-20T11:58:29.899Z,38.27
2018-04-20T11:59:51.806Z,38.40
2018-04-20T12:00:53.838Z,38.38
2018-04-20T12:01:52.597Z,38.26
2018-04-20T12:02:52.584Z,38.33
2018-04-20T12:03:52.351Z,38.34
2018-04-20T12:04:52.707Z,38.40
2018-04-20T12:06:13.961Z,38.38
2018-04-20T12:07:13.741Z,38.49
2018-04-20T12:08:14.869Z,38.20
2018-04-20T12:09:13.749Z,37.82
2018-04-20T12:10:13.696Z,37.74
2018-04-20T12:11:34.800Z,37.49
2018-04-20T12:12:34.673Z,37.53
2018-04-20T12:13:34.983Z,37.44
2018-04-20T12:14:34.916Z,37.59
2018-04-20T12:15:56.472Z,37.71
2018-04-20T12:17:02.528Z,37.75
2018-04-20T12:17:56.671Z,37.59
2018-04-20T12:18:57.501Z,37.64
2018-04-20T12:19:56.747Z,37.94
2018-04-20T12:20:56.857Z,38.26
2018-04-20T12:21:56.962Z,38.62
2018-04-20T12:22:58.557Z,38.96
2018-04-20T12:24:18.027Z,38.92
2018-04-20T12:25:18.087Z,38.71
2018-04-20T12:26:18.108Z,38.71
2018-04-20T12:27:40.909Z,38.77
2018-04-20T12:28:41.007Z,38.71
2018-04-20T12:29:40.883Z,38.67
2018-04-20T12:30:40.885Z,38.67
2018-04-20T12:31:40.846Z,38.55
2018-04-20T12:32:40.916Z,38.58
2018-04-20T12:33:41.326Z,38.76
2018-04-20T12:34:41.212Z,38.97
2018-04-20T12:35:41.473Z,39.26
2018-04-20T12:36:41.299Z,39.29
2018-04-20T12:37:42.255Z,39.15
2018-04-20T12:39:02.682Z,38.33
2018-04-20T12:40:24.500Z,38.08
2018-04-20T12:41:25.900Z,38.04
2018-04-20T12:42:23.930Z,38.28
2018-04-20T12:43:24.332Z,38.31
2018-04-20T12:44:24.662Z,38.15
2018-04-20T12:45:24.731Z,37.84
2018-04-20T12:46:25.092Z,37.59
2018-04-20T12:47:23.934Z,37.78
2018-04-20T12:48:24.327Z,38.08
2018-04-20T12:49:24.621Z,38.34
2018-04-20T12:50:46.957Z,38.45
2018-04-20T12:51:45.736Z,38.38
2018-04-20T12:52:45.709Z,38.39
2018-04-20T12:53:45.895Z,38.20
2018-04-20T12:54:46.266Z,37.89
2018-04-20T12:55:45.292Z,37.51
2018-04-20T12:56:46.100Z,37.55
2018-04-20T12:57:45.976Z,37.03
2018-04-20T12:58:46.052Z,36.54
2018-04-20T12:59:46.036Z,36.35
2018-04-20T13:00:45.761Z,36.00
2018-04-20T13:01:46.015Z,35.83
2018-04-20T13:02:45.976Z,35.90
2018-04-20T13:03:46.057Z,36.00
2018-04-20T13:04:46.539Z,36.30
2018-04-20T13:05:45.739Z,36.40
2018-04-20T13:06:45.870Z,36.37
2018-04-20T13:07:46.121Z,35.63
2018-04-20T13:08:45.702Z,35.29
2018-04-20T13:09:45.614Z,35.23
2018-04-20T13:11:07.091Z,35.08
2018-04-20T13:12:27.899Z,35.46
2018-04-20T13:13:28.797Z,35.76
2018-04-20T13:14:27.996Z,36.17
2018-04-20T13:15:28.000Z,36.45
2018-04-20T13:17:51.361Z,36.09
2018-04-20T13:18:51.490Z,36.07
2018-04-20T13:20:55.873Z,35.64
2018-04-20T13:21:56.188Z,35.66
2018-04-20T13:22:56.574Z,35.68
2018-04-20T13:23:56.824Z,35.76
2018-04-20T13:25:16.277Z,36.00
2018-04-20T13:26:17.609Z,36.04
2018-04-20T13:27:16.554Z,35.95
2018-04-20T13:28:16.927Z,35.71
2018-04-20T13:29:17.222Z,35.17
2018-04-20T13:30:18.193Z,35.17
2018-04-20T13:31:17.713Z,35.18
2018-04-20T13:32:37.871Z,34.74
2018-04-20T13:33:40.140Z,34.67
2018-04-20T13:34:38.303Z,34.47
2018-04-20T13:36:00.669Z,34.90
2018-04-20T13:37:21.152Z,35.22
2018-04-20T13:38:21.972Z,35.37
2018-04-20T13:39:23.257Z,35.67
2018-04-20T13:40:22.579Z,35.66
2018-04-20T13:41:21.847Z,35.36